Sayre, AL

8:10 PM CDT on August 28, 2015 (GMT -0500)
APRSWXNET | | Change Station
CLOSE
Current Station
Personal Weather Station
Location: Empire, AL
Elevation: 764 ft
Nearby Weather Stations

Elev 764 ft 33.81 °N, 86.93 °W | Updated 33 minutes ago

Partly Cloudy
Partly Cloudy
78 °F
Feels Like 80 °F
N
0
Wind Variable Wind from SE
Gusts 1.0 mph

Today
High -- | Low -- °F
--% Chance of Precip.
Yesterday
High -- | Low -- °F
Precip. -- in
6:18 AM 7:18 PM
Waxing Gibbous, 99% visible
Pressure 30.05 in
Visibility 10.0 miles
Clouds Few 4000 ft
Mostly Cloudy 8000 ft
Heat Index 80 °F
Dew Point 71 °F
Humidity 80%
Rainfall in
Snow Depth Not available.
UV 0 out of 12
Pollen 8.80 out of 12
Air Quality Not available.
Flu Activity Not available.
METAR KBHM 290053Z 09008KT 10SM FEW040 BKN080 28/21 A3007 RMK AO2 LTG DSNT S SLP175 T02780206
Pressure 30.05 in
Visibility 10.0 miles
Clouds Few 4000 ft
Mostly Cloudy 8000 ft
Heat Index 80 °F
Dew Point 71 °F
Humidity 80%
Rainfall in
Snow Depth Not available.
UV 0 out of 12
Pollen 8.80 out of 12
Air Quality Not available.
Flu Activity Not available.
METAR KBHM 290053Z 09008KT 10SM FEW040 BKN080 28/21 A3007 RMK AO2 LTG DSNT S SLP175 T02780206

10-Day Weather Forecast

×

Almanac

Astronomy

Aug. 28, 2015 Rise Set
Actual Time
Civil Twilight
Nautical Twilight
Astronomical Twilight
Moon
Length of Visible Light
Length of Day
Tomorrow will be .
, % of the Moon is Illuminated

Today's Extremes

State Highs State Lows

Community

WunderPhotos

Upload Photos

1,850,557 photos uploaded!

WunderBlogs® & News

Nearby

Air Quality

  Air Quality AQ Index Pollutant
Not available.

Snow Depth

Station Depth Elevation

Earthquake Activity

City Distance Mag. Time & Date
Minimum magnitude displayed is 2.5.

Coastal Water Temperatures

Place Temperature

Stations

Nearby Weather Stations

Station Location Temp. Windchill Dew Point Humidity Wind Precip. Elev Updated Type